createdAt,value
2017-11-28T00:00:16.456Z,0
2017-11-28T00:01:26.471Z,0
2017-11-28T00:02:36.196Z,0
2017-11-28T00:03:46.195Z,0
2017-11-28T00:04:56.228Z,0
2017-11-28T00:06:06.235Z,0
2017-11-28T00:07:15.968Z,0
2017-11-28T00:08:25.978Z,0
2017-11-28T00:09:35.983Z,0
2017-11-28T00:10:45.713Z,0
2017-11-28T00:11:55.445Z,0
2017-11-28T00:13:05.457Z,0
2017-11-28T00:14:15.186Z,0
2017-11-28T00:15:25.217Z,0
2017-11-28T00:16:34.958Z,0
2017-11-28T00:17:44.958Z,0
2017-11-28T00:18:54.421Z,0
2017-11-28T00:20:04.425Z,0
2017-11-28T00:21:14.424Z,0
2017-11-28T00:22:24.425Z,0
2017-11-28T00:23:34.422Z,0
2017-11-28T00:24:44.438Z,0
2017-11-28T00:25:54.440Z,0
2017-11-28T00:27:04.454Z,0
2017-11-28T00:28:14.459Z,0
2017-11-28T00:29:24.456Z,0
2017-11-28T00:30:34.466Z,0
2017-11-28T00:31:44.475Z,0
2017-11-28T00:32:54.512Z,0
2017-11-28T00:34:04.518Z,0
2017-11-28T00:35:14.522Z,0
2017-11-28T00:36:24.528Z,0
2017-11-28T00:37:34.540Z,0
2017-11-28T00:38:44.546Z,0
2017-11-28T00:39:54.545Z,0
2017-11-28T00:41:04.553Z,0
2017-11-28T00:42:14.021Z,0
2017-11-28T00:43:24.026Z,0
2017-11-28T00:44:33.756Z,0
2017-11-28T00:45:43.777Z,0
2017-11-28T00:46:53.789Z,0
2017-11-28T00:48:03.796Z,0
2017-11-28T00:49:13.849Z,0
2017-11-28T00:50:23.877Z,0
2017-11-28T00:51:33.876Z,0
2017-11-28T00:52:43.882Z,0
2017-11-28T00:53:53.624Z,0
2017-11-28T00:55:03.628Z,0
2017-11-28T00:56:13.363Z,0
2017-11-28T00:57:23.381Z,0
2017-11-28T00:58:33.118Z,0
2017-11-28T00:59:43.134Z,0
2017-11-28T01:00:53.155Z,0
2017-11-28T01:02:03.184Z,0
2017-11-28T01:03:12.645Z,0
2017-11-28T01:04:22.394Z,0
2017-11-28T01:05:32.410Z,0
2017-11-28T01:06:42.145Z,0
2017-11-28T01:07:51.890Z,0
2017-11-28T01:09:01.911Z,0
2017-11-28T01:10:11.933Z,0
2017-11-28T01:11:21.947Z,0
2017-11-28T01:12:31.953Z,0
2017-11-28T01:13:41.976Z,0
2017-11-28T01:14:51.986Z,0
2017-11-28T01:16:01.729Z,0
2017-11-28T01:17:11.733Z,0
2017-11-28T01:18:21.732Z,0
2017-11-28T01:19:31.733Z,0
2017-11-28T01:20:41.737Z,0
2017-11-28T01:21:51.754Z,0
2017-11-28T01:23:01.771Z,0
2017-11-28T01:24:11.787Z,0
2017-11-28T01:25:22.099Z,0
2017-11-28T01:26:32.098Z,0
2017-11-28T01:27:42.101Z,0
2017-11-28T01:28:52.103Z,0
2017-11-28T01:30:02.115Z,0
2017-11-28T01:31:12.128Z,0
2017-11-28T01:32:22.140Z,0
2017-11-28T01:33:32.152Z,0
2017-11-28T01:34:42.160Z,0
2017-11-28T01:35:52.172Z,0
2017-11-28T01:37:02.173Z,0
2017-11-28T01:38:12.184Z,0
2017-11-28T01:39:22.191Z,0
2017-11-28T01:40:32.215Z,0
2017-11-28T01:41:42.250Z,0
2017-11-28T01:42:52.252Z,0
2017-11-28T01:44:02.269Z,0
2017-11-28T01:45:11.732Z,0
2017-11-28T01:46:21.746Z,0
2017-11-28T01:47:31.744Z,0
2017-11-28T01:48:41.779Z,0
2017-11-28T01:49:51.781Z,0
2017-11-28T01:51:01.782Z,0
2017-11-28T01:52:11.514Z,0
2017-11-28T01:53:21.524Z,0
2017-11-28T01:54:31.527Z,0
2017-11-28T01:55:41.551Z,0
2017-11-28T01:56:51.558Z,0
2017-11-28T01:58:01.572Z,0
2017-11-28T01:59:11.581Z,0
2017-11-28T02:00:21.592Z,0
2017-11-28T02:01:31.333Z,0
2017-11-28T02:02:41.067Z,0
2017-11-28T02:03:51.094Z,0
2017-11-28T02:05:01.116Z,0
2017-11-28T02:06:11.119Z,0
2017-11-28T02:07:21.125Z,0
2017-11-28T02:08:31.135Z,0
2017-11-28T02:09:41.136Z,0
2017-11-28T02:10:51.162Z,0
2017-11-28T02:12:01.170Z,0
2017-11-28T02:13:11.175Z,0
2017-11-28T02:14:21.191Z,0
2017-11-28T02:15:30.922Z,0
2017-11-28T02:16:40.384Z,0
2017-11-28T02:17:50.398Z,0
2017-11-28T02:19:00.437Z,0
2017-11-28T02:20:10.197Z,0
2017-11-28T02:21:20.200Z,0
2017-11-28T02:22:30.201Z,0
2017-11-28T02:23:40.204Z,0
2017-11-28T02:24:50.213Z,0
2017-11-28T02:26:00.219Z,0
2017-11-28T02:27:10.234Z,0
2017-11-28T02:28:19.698Z,0
2017-11-28T02:29:29.438Z,0
2017-11-28T02:30:39.490Z,0
2017-11-28T02:31:49.500Z,0
2017-11-28T02:32:59.239Z,0
2017-11-28T02:34:09.290Z,0
2017-11-28T02:35:19.316Z,0
2017-11-28T02:36:29.332Z,0
2017-11-28T02:37:39.343Z,0
2017-11-28T02:38:49.094Z,0
2017-11-28T02:39:59.120Z,0
2017-11-28T02:41:09.140Z,0
2017-11-28T02:42:18.877Z,0
2017-11-28T02:43:28.621Z,0
2017-11-28T02:44:38.645Z,0
2017-11-28T02:45:48.657Z,0
2017-11-28T02:46:58.662Z,0
2017-11-28T02:48:08.397Z,0
2017-11-28T02:49:18.441Z,0
2017-11-28T02:50:27.906Z,0
2017-11-28T02:51:37.910Z,0
2017-11-28T02:52:47.926Z,0
2017-11-28T02:53:57.995Z,0
2017-11-28T02:55:08.037Z,0
2017-11-28T02:56:17.868Z,0
2017-11-28T02:57:27.613Z,0
2017-11-28T02:58:37.618Z,0
2017-11-28T02:59:47.626Z,0
2017-11-28T03:00:57.635Z,0
2017-11-28T03:02:07.703Z,0
2017-11-28T03:03:17.707Z,0
2017-11-28T03:04:27.474Z,0
2017-11-28T03:05:37.240Z,0
2017-11-28T03:06:47.263Z,0
2017-11-28T03:07:57.271Z,0
2017-11-28T03:09:07.003Z,0
2017-11-28T03:10:17.075Z,0
2017-11-28T03:11:27.078Z,0
2017-11-28T03:12:37.102Z,0
2017-11-28T03:13:47.103Z,0
2017-11-28T03:14:57.127Z,0
2017-11-28T03:16:07.142Z,0
2017-11-28T03:17:16.886Z,0
2017-11-28T03:18:26.618Z,0
2017-11-28T03:19:36.642Z,0
2017-11-28T03:20:46.655Z,0
2017-11-28T03:21:56.673Z,0
2017-11-28T03:23:06.682Z,0
2017-11-28T03:24:16.423Z,0
2017-11-28T03:25:26.157Z,0
2017-11-28T03:26:36.156Z,0
2017-11-28T03:27:47.896Z,0
2017-11-28T03:28:57.912Z,0
2017-11-28T03:30:07.651Z,0
2017-11-28T03:31:17.736Z,0
2017-11-28T03:32:27.752Z,0
2017-11-28T03:33:37.764Z,0
2017-11-28T03:34:47.766Z,0
2017-11-28T03:35:57.784Z,0
2017-11-28T03:37:07.788Z,0
2017-11-28T03:38:17.808Z,0
2017-11-28T03:39:27.834Z,0
2017-11-28T03:40:37.847Z,0
2017-11-28T03:41:47.863Z,0
2017-11-28T03:42:57.882Z,0
2017-11-28T03:44:07.634Z,0
2017-11-28T03:45:17.644Z,0
2017-11-28T03:46:27.718Z,0
2017-11-28T03:47:37.726Z,0
2017-11-28T03:48:47.729Z,0
2017-11-28T03:49:57.740Z,0
2017-11-28T03:51:07.746Z,0
2017-11-28T03:52:17.775Z,0
2017-11-28T03:53:27.521Z,0
2017-11-28T03:54:37.560Z,0
2017-11-28T03:55:47.580Z,0
2017-11-28T03:56:57.585Z,0
2017-11-28T03:58:07.596Z,0
2017-11-28T03:59:17.614Z,0
2017-11-28T04:00:27.618Z,0
2017-11-28T04:04:16.773Z,0
2017-11-28T04:05:26.781Z,0
2017-11-28T04:06:36.797Z,0
2017-11-28T04:07:46.826Z,0
2017-11-28T04:08:56.832Z,0
2017-11-28T04:10:06.845Z,0
2017-11-28T04:11:16.887Z,0
2017-11-28T04:12:26.905Z,0
2017-11-28T04:13:36.638Z,0
2017-11-28T04:14:46.673Z,0
2017-11-28T04:15:56.418Z,0
2017-11-28T04:17:06.431Z,0
2017-11-28T04:18:16.450Z,0
2017-11-28T04:19:26.461Z,0
2017-11-28T04:20:36.471Z,0
2017-11-28T04:21:46.473Z,0
2017-11-28T04:22:56.490Z,0
2017-11-28T04:24:05.949Z,0
2017-11-28T04:25:15.693Z,0
2017-11-28T04:26:25.700Z,0
2017-11-28T04:27:35.710Z,0
2017-11-28T04:28:45.721Z,0
2017-11-28T04:29:55.748Z,0
2017-11-28T04:31:05.792Z,0
2017-11-28T04:32:15.807Z,0
2017-11-28T04:33:25.816Z,0
2017-11-28T04:34:35.830Z,0
2017-11-28T04:35:45.833Z,0
2017-11-28T04:36:55.853Z,0
2017-11-28T04:38:05.927Z,0
2017-11-28T04:39:15.935Z,0
2017-11-28T04:40:25.943Z,0
2017-11-28T04:41:35.946Z,0
2017-11-28T04:42:45.951Z,0
2017-11-28T04:43:55.955Z,0
2017-11-28T04:45:05.702Z,0
2017-11-28T04:46:15.713Z,0
2017-11-28T04:47:25.716Z,0
2017-11-28T04:48:35.718Z,0
2017-11-28T04:49:45.451Z,0
2017-11-28T04:50:55.450Z,0
2017-11-28T04:52:05.466Z,0
2017-11-28T04:53:15.200Z,0
2017-11-28T04:54:25.220Z,0
2017-11-28T04:55:35.226Z,0
2017-11-28T04:56:45.231Z,0
2017-11-28T04:57:55.238Z,0
2017-11-28T04:59:05.248Z,0
2017-11-28T05:00:14.992Z,0
2017-11-28T05:01:25.000Z,0
2017-11-28T05:02:35.012Z,0
2017-11-28T05:03:44.745Z,0
2017-11-28T05:04:54.768Z,0
2017-11-28T05:06:04.777Z,0
2017-11-28T05:07:14.788Z,0
2017-11-28T05:08:24.804Z,0
2017-11-28T05:09:34.829Z,0
2017-11-28T05:10:44.869Z,0
2017-11-28T05:11:54.905Z,0
2017-11-28T05:13:04.948Z,0
2017-11-28T05:14:14.949Z,0
2017-11-28T05:15:24.686Z,0
2017-11-28T05:16:34.417Z,0
2017-11-28T05:17:44.432Z,0
2017-11-28T05:18:54.442Z,0
2017-11-28T05:20:04.458Z,0
2017-11-28T05:21:14.223Z,0
2017-11-28T05:22:24.226Z,0
2017-11-28T05:23:34.246Z,0
2017-11-28T05:24:44.249Z,0
2017-11-28T05:25:56.251Z,0
2017-11-28T05:27:06.267Z,0
2017-11-28T05:28:16.002Z,0
2017-11-28T05:29:26.017Z,0
2017-11-28T05:30:36.022Z,0
2017-11-28T05:31:46.034Z,0
2017-11-28T05:32:55.763Z,0
2017-11-28T05:34:05.774Z,0
2017-11-28T05:35:15.512Z,0
2017-11-28T05:36:25.519Z,0
2017-11-28T05:37:35.521Z,0
2017-11-28T05:38:45.530Z,0
2017-11-28T05:39:55.271Z,0
2017-11-28T05:41:05.008Z,0
2017-11-28T05:42:15.021Z,0
2017-11-28T05:43:27.044Z,0
2017-11-28T05:44:37.071Z,0
2017-11-28T05:45:47.138Z,0
2017-11-28T05:46:57.148Z,0
2017-11-28T05:48:07.159Z,0
2017-11-28T05:49:16.891Z,0
2017-11-28T05:50:26.896Z,0
2017-11-28T05:51:36.635Z,0
2017-11-28T05:52:46.637Z,0
2017-11-28T05:53:56.657Z,0
2017-11-28T05:55:06.662Z,0
2017-11-28T05:56:16.413Z,0
2017-11-28T05:57:26.154Z,0
2017-11-28T05:58:35.622Z,0
2017-11-28T05:59:45.675Z,0
2017-11-28T06:00:55.685Z,0
2017-11-28T06:02:05.691Z,0
2017-11-28T06:03:15.157Z,0
2017-11-28T06:04:25.165Z,0
2017-11-28T06:05:35.170Z,0
2017-11-28T06:06:45.207Z,0
2017-11-28T06:07:55.221Z,0
2017-11-28T06:09:04.957Z,0
2017-11-28T06:10:14.966Z,0
2017-11-28T06:11:24.970Z,0
2017-11-28T06:12:34.986Z,0
2017-11-28T06:13:45.005Z,0
2017-11-28T06:14:54.766Z,0
2017-11-28T06:16:04.783Z,0
2017-11-28T06:17:14.796Z,0
2017-11-28T06:18:24.800Z,0
2017-11-28T06:19:34.815Z,0
2017-11-28T06:20:44.834Z,0
2017-11-28T06:21:54.857Z,0
2017-11-28T06:23:04.863Z,0
2017-11-28T06:24:14.873Z,0
2017-11-28T06:25:24.878Z,0
2017-11-28T06:26:34.893Z,0
2017-11-28T06:27:44.902Z,0
2017-11-28T06:28:54.927Z,0
2017-11-28T06:30:04.942Z,0
2017-11-28T06:31:14.956Z,0
2017-11-28T06:32:24.980Z,0
2017-11-28T06:33:35.008Z,0
2017-11-28T06:34:44.751Z,0
2017-11-28T06:35:54.757Z,0
2017-11-28T06:37:04.767Z,0
2017-11-28T06:38:14.787Z,0
2017-11-28T06:39:24.530Z,0
2017-11-28T06:40:34.544Z,0
2017-11-28T06:41:44.577Z,0
2017-11-28T06:42:54.310Z,0
2017-11-28T06:44:04.046Z,0
2017-11-28T06:45:14.054Z,0
2017-11-28T06:46:24.062Z,0
2017-11-28T06:47:34.063Z,0
2017-11-28T06:48:44.081Z,0
2017-11-28T06:49:54.084Z,0
2017-11-28T06:51:04.093Z,0
2017-11-28T06:52:14.110Z,0
2017-11-28T06:53:24.113Z,0
2017-11-28T06:54:34.121Z,0
2017-11-28T06:55:43.879Z,0
2017-11-28T06:56:53.915Z,0
2017-11-28T06:58:03.690Z,0
2017-11-28T06:59:13.703Z,0
2017-11-28T07:00:23.721Z,0
2017-11-28T07:01:33.730Z,0
2017-11-28T07:02:43.751Z,0
2017-11-28T07:03:53.490Z,0
2017-11-28T07:05:03.230Z,0
2017-11-28T07:06:12.969Z,0
2017-11-28T07:07:22.999Z,0
2017-11-28T07:08:33.005Z,0
2017-11-28T07:09:43.042Z,0
2017-11-28T07:10:53.059Z,0
2017-11-28T07:12:03.072Z,0
2017-11-28T07:13:13.083Z,0
2017-11-28T07:14:22.826Z,0
2017-11-28T07:15:32.295Z,0
2017-11-28T07:16:42.363Z,0
2017-11-28T07:17:52.105Z,0
2017-11-28T07:19:01.846Z,0
2017-11-28T07:20:11.856Z,0
2017-11-28T07:21:21.593Z,0
2017-11-28T07:22:31.606Z,0
2017-11-28T07:23:41.616Z,0
2017-11-28T07:24:51.620Z,0
2017-11-28T07:26:01.626Z,0
2017-11-28T07:27:11.630Z,0
2017-11-28T07:28:21.652Z,0
2017-11-28T07:29:31.565Z,0
2017-11-28T07:30:41.578Z,0
2017-11-28T07:31:51.706Z,0
2017-11-28T07:33:01.437Z,0
2017-11-28T07:34:12.197Z,0
2017-11-28T07:35:22.217Z,0
2017-11-28T07:36:32.274Z,0
2017-11-28T07:37:42.286Z,0
2017-11-28T07:38:52.294Z,0
2017-11-28T07:40:02.293Z,0
2017-11-28T07:41:12.037Z,0
2017-11-28T07:42:22.066Z,0
2017-11-28T07:43:32.077Z,0
2017-11-28T07:44:42.082Z,0
2017-11-28T07:45:52.392Z,5
2017-11-28T07:47:02.415Z,5
2017-11-28T07:48:12.175Z,5
2017-11-28T07:49:22.198Z,5
2017-11-28T07:50:32.215Z,5
2017-11-28T07:51:42.220Z,5
2017-11-28T07:52:51.948Z,5
2017-11-28T07:54:01.976Z,5
2017-11-28T07:55:11.723Z,5
2017-11-28T07:56:21.481Z,5
2017-11-28T07:57:31.219Z,5
2017-11-28T07:58:41.260Z,10
2017-11-28T07:59:51.265Z,10
2017-11-28T08:01:01.001Z,10
2017-11-28T08:02:11.014Z,10
2017-11-28T08:03:21.017Z,10
2017-11-28T08:04:31.144Z,10
2017-11-28T08:05:41.151Z,10
2017-11-28T08:06:51.156Z,10
2017-11-28T08:08:01.159Z,10
2017-11-28T08:09:11.164Z,15
2017-11-28T08:10:21.183Z,15
2017-11-28T08:11:31.185Z,15
2017-11-28T08:12:41.188Z,15
2017-11-28T08:13:51.195Z,15
2017-11-28T08:15:00.940Z,20
2017-11-28T08:16:10.953Z,20
2017-11-28T08:17:20.694Z,20
2017-11-28T08:18:30.699Z,20
2017-11-28T08:19:40.706Z,25
2017-11-28T08:20:50.442Z,25
2017-11-28T08:22:00.443Z,25
2017-11-28T08:23:10.451Z,25
2017-11-28T08:24:20.458Z,25
2017-11-28T08:25:30.474Z,25
2017-11-28T08:26:40.485Z,30
2017-11-28T08:27:49.973Z,30
2017-11-28T08:29:00.046Z,30
2017-11-28T08:30:10.054Z,30
2017-11-28T08:31:20.067Z,30
2017-11-28T08:32:30.081Z,30
2017-11-28T08:33:40.084Z,30
2017-11-28T08:34:50.091Z,30
2017-11-28T08:36:00.111Z,30
2017-11-28T08:37:10.120Z,30
2017-11-28T08:38:20.484Z,30
2017-11-28T08:39:30.497Z,30
2017-11-28T08:40:40.257Z,30
2017-11-28T08:41:50.281Z,35
2017-11-28T08:43:00.288Z,35
2017-11-28T08:44:09.756Z,35
2017-11-28T08:45:19.766Z,35
2017-11-28T08:46:29.773Z,35
2017-11-28T08:47:39.531Z,35
2017-11-28T08:48:49.544Z,35
2017-11-28T08:49:59.546Z,35
2017-11-28T08:51:09.311Z,40
2017-11-28T08:52:19.046Z,40
2017-11-28T08:53:29.049Z,40
2017-11-28T08:54:39.103Z,45
2017-11-28T08:55:48.839Z,45
2017-11-28T08:56:58.855Z,45
2017-11-28T08:58:08.861Z,45
2017-11-28T08:59:18.879Z,45
2017-11-28T09:00:28.891Z,45
2017-11-28T09:01:38.908Z,45
2017-11-28T09:02:48.666Z,40
2017-11-28T09:03:58.403Z,40
2017-11-28T09:05:08.402Z,45
2017-11-28T09:06:18.406Z,40
2017-11-28T09:07:28.159Z,40
2017-11-28T09:08:37.913Z,40
2017-11-28T09:09:47.646Z,45
2017-11-28T09:10:57.649Z,45
2017-11-28T09:12:07.384Z,45
2017-11-28T09:13:17.129Z,45
2017-11-28T09:14:27.149Z,50
2017-11-28T09:15:37.151Z,50
2017-11-28T09:16:47.158Z,50
2017-11-28T09:17:56.896Z,55
2017-11-28T09:19:06.906Z,55
2017-11-28T09:20:16.914Z,55
2017-11-28T09:21:26.949Z,60
2017-11-28T09:22:36.951Z,60
2017-11-28T09:23:46.961Z,60
2017-11-28T09:24:56.960Z,60
2017-11-28T09:26:06.964Z,65
2017-11-28T09:27:16.156Z,65
2017-11-28T09:28:25.886Z,70
2017-11-28T09:29:35.384Z,70
2017-11-28T09:30:45.845Z,70
2017-11-28T09:31:55.850Z,75
2017-11-28T09:33:05.886Z,75
2017-11-28T09:34:15.618Z,75
2017-11-28T09:35:25.353Z,75
2017-11-28T09:36:35.374Z,75
2017-11-28T09:37:45.381Z,75
2017-11-28T09:38:55.440Z,75
2017-11-28T09:40:05.451Z,75
2017-11-28T09:41:15.479Z,75
2017-11-28T09:42:25.486Z,75
2017-11-28T09:43:35.483Z,75
2017-11-28T09:44:45.228Z,75
2017-11-28T09:45:54.970Z,75
2017-11-28T09:47:04.983Z,80
2017-11-28T09:48:15.005Z,80
2017-11-28T09:49:24.750Z,80
2017-11-28T09:50:34.512Z,80
2017-11-28T09:51:44.515Z,85
2017-11-28T09:52:53.989Z,90
2017-11-28T09:54:03.725Z,90
2017-11-28T09:55:13.744Z,95
2017-11-28T09:56:23.755Z,95
2017-11-28T09:57:33.767Z,95
2017-11-28T09:58:43.770Z,100
2017-11-28T09:59:53.240Z,105
2017-11-28T10:01:03.257Z,110
2017-11-28T10:02:13.268Z,115
2017-11-28T10:03:23.008Z,120
2017-11-28T10:04:33.060Z,125
2017-11-28T10:05:43.066Z,130
2017-11-28T10:06:52.537Z,135
2017-11-28T10:08:02.539Z,140
2017-11-28T10:09:12.291Z,145
2017-11-28T10:10:22.306Z,150
2017-11-28T10:11:32.374Z,150
2017-11-28T10:12:42.405Z,155
2017-11-28T10:13:51.892Z,155
2017-11-28T10:15:01.353Z,155
2017-11-28T10:16:11.366Z,160
2017-11-28T10:17:21.707Z,160
2017-11-28T10:18:31.443Z,160
2017-11-28T10:19:41.454Z,155
2017-11-28T10:20:51.461Z,155
2017-11-28T10:22:01.207Z,160
2017-11-28T10:23:10.946Z,160
2017-11-28T10:24:20.948Z,155
2017-11-28T10:25:30.992Z,155
2017-11-28T10:26:41.007Z,150
2017-11-28T10:27:51.018Z,145
2017-11-28T10:29:01.048Z,140
2017-11-28T10:30:11.056Z,140
2017-11-28T10:31:21.080Z,140
2017-11-28T10:32:30.542Z,140
2017-11-28T10:33:40.551Z,135
2017-11-28T10:34:50.027Z,130
2017-11-28T10:35:59.762Z,125
2017-11-28T10:37:09.777Z,120
2017-11-28T10:38:19.793Z,115
2017-11-28T10:39:29.796Z,115
2017-11-28T10:40:39.817Z,115
2017-11-28T10:41:49.833Z,105
2017-11-28T10:42:59.839Z,105
2017-11-28T10:44:09.579Z,100
2017-11-28T10:45:19.591Z,100
2017-11-28T10:46:29.621Z,100
2017-11-28T10:47:39.629Z,100
2017-11-28T10:48:49.370Z,100
2017-11-28T10:49:59.369Z,100
2017-11-28T10:51:09.378Z,105
2017-11-28T10:52:19.116Z,105
2017-11-28T10:53:29.141Z,105
2017-11-28T10:54:39.167Z,105
2017-11-28T10:55:49.177Z,105
2017-11-28T10:56:59.181Z,105
2017-11-28T10:58:08.923Z,105
2017-11-28T10:59:18.928Z,105
2017-11-28T11:00:28.945Z,105
2017-11-28T11:01:38.948Z,105
2017-11-28T11:02:48.684Z,110
2017-11-28T11:03:58.702Z,110
2017-11-28T11:05:08.723Z,115
2017-11-28T11:06:18.455Z,115
2017-11-28T11:07:28.471Z,120
2017-11-28T11:08:38.471Z,120
2017-11-28T11:09:48.211Z,120
2017-11-28T11:10:58.220Z,120
2017-11-28T11:12:07.975Z,120
2017-11-28T11:13:17.451Z,120
2017-11-28T11:14:27.477Z,125
2017-11-28T11:15:37.483Z,125
2017-11-28T11:16:47.495Z,125
2017-11-28T11:17:57.499Z,130
2017-11-28T11:19:07.238Z,130
2017-11-28T11:20:17.241Z,130
2017-11-28T11:21:27.254Z,135
2017-11-28T11:22:37.256Z,135
2017-11-28T11:23:47.263Z,135
2017-11-28T11:24:57.265Z,135
2017-11-28T11:26:07.015Z,135
2017-11-28T11:27:17.037Z,135
2017-11-28T11:28:27.075Z,140
2017-11-28T11:29:37.128Z,140
2017-11-28T11:30:46.858Z,140
2017-11-28T11:31:56.880Z,140
2017-11-28T11:33:06.355Z,135
2017-11-28T11:34:15.829Z,135
2017-11-28T11:35:25.843Z,135
2017-11-28T11:36:35.910Z,135
2017-11-28T11:37:45.933Z,135
2017-11-28T11:38:55.939Z,130
2017-11-28T11:40:05.135Z,130
2017-11-28T11:41:15.169Z,130
2017-11-28T11:42:25.184Z,125
2017-11-28T11:43:34.929Z,120
2017-11-28T11:44:44.940Z,120
2017-11-28T11:45:54.138Z,115
2017-11-28T11:47:04.143Z,110
2017-11-28T11:48:14.154Z,105
2017-11-28T11:49:24.158Z,100
2017-11-28T11:50:34.206Z,100
2017-11-28T11:51:44.213Z,90
2017-11-28T11:52:54.218Z,90
2017-11-28T11:54:04.224Z,90
2017-11-28T11:55:14.232Z,90
2017-11-28T11:56:24.376Z,90
2017-11-28T11:57:34.385Z,90
2017-11-28T11:58:44.138Z,90
2017-11-28T11:59:53.885Z,85
2017-11-28T12:01:03.639Z,85
2017-11-28T12:02:13.651Z,85
2017-11-28T12:03:23.400Z,85
2017-11-28T12:04:33.409Z,85
2017-11-28T12:05:43.418Z,85
2017-11-28T12:06:52.883Z,85
2017-11-28T12:08:02.888Z,85
2017-11-28T12:09:12.902Z,85
2017-11-28T12:10:22.676Z,85
2017-11-28T12:11:32.693Z,85
2017-11-28T12:12:42.711Z,85
2017-11-28T12:13:53.938Z,85
2017-11-28T12:15:03.674Z,85
2017-11-28T12:16:13.686Z,80
2017-11-28T12:17:23.697Z,80
2017-11-28T12:18:33.794Z,85
2017-11-28T12:19:43.800Z,85
2017-11-28T12:20:53.809Z,80
2017-11-28T12:22:03.563Z,80
2017-11-28T12:23:13.575Z,75
2017-11-28T12:24:23.338Z,75
2017-11-28T12:25:33.364Z,70
2017-11-28T12:26:43.375Z,70
2017-11-28T12:27:53.131Z,70
2017-11-28T12:29:03.142Z,70
2017-11-28T12:30:12.885Z,65
2017-11-28T12:31:22.617Z,65
2017-11-28T12:32:32.637Z,65
2017-11-28T12:33:42.370Z,65
2017-11-28T12:34:52.107Z,65
2017-11-28T12:36:02.123Z,65
2017-11-28T12:37:11.642Z,65
2017-11-28T12:38:21.644Z,60
2017-11-28T12:39:31.661Z,60
2017-11-28T12:40:41.694Z,60
2017-11-28T12:41:51.444Z,60
2017-11-28T12:43:01.461Z,60
2017-11-28T12:44:11.472Z,60
2017-11-28T12:45:21.474Z,60
2017-11-28T12:46:31.482Z,60
2017-11-28T12:47:41.503Z,60
2017-11-28T12:48:51.316Z,60
2017-11-28T12:50:01.049Z,60
2017-11-28T12:51:11.065Z,60
2017-11-28T12:52:20.816Z,60
2017-11-28T12:53:30.824Z,60
2017-11-28T12:54:40.833Z,60
2017-11-28T12:55:50.575Z,60
2017-11-28T12:57:00.037Z,60
2017-11-28T12:58:10.061Z,60
2017-11-28T12:59:20.089Z,55
2017-11-28T13:00:30.104Z,55
2017-11-28T13:01:40.110Z,55
2017-11-28T13:02:50.119Z,55
2017-11-28T13:04:00.119Z,50
2017-11-28T13:05:10.166Z,50
2017-11-28T13:06:20.199Z,50
2017-11-28T13:07:30.204Z,45
2017-11-28T13:08:40.205Z,45
2017-11-28T13:09:49.942Z,45
2017-11-28T13:10:59.954Z,40
2017-11-28T13:12:09.688Z,40
2017-11-28T13:13:19.424Z,40
2017-11-28T13:14:29.422Z,40
2017-11-28T13:15:39.426Z,40
2017-11-28T13:16:49.428Z,35
2017-11-28T13:17:59.425Z,35
2017-11-28T13:19:09.173Z,35
2017-11-28T13:20:18.936Z,35
2017-11-28T13:21:28.677Z,35
2017-11-28T13:22:38.682Z,35
2017-11-28T13:23:48.685Z,35
2017-11-28T13:24:58.690Z,30
2017-11-28T13:26:08.703Z,30
2017-11-28T13:27:18.436Z,30
2017-11-28T13:28:28.173Z,30
2017-11-28T13:29:38.195Z,30
2017-11-28T13:30:47.955Z,30
2017-11-28T13:31:57.687Z,30
2017-11-28T13:33:07.689Z,30
2017-11-28T13:34:17.427Z,30
2017-11-28T13:35:27.433Z,30
2017-11-28T13:36:37.441Z,30
2017-11-28T13:37:47.447Z,30
2017-11-28T13:38:56.651Z,30
2017-11-28T13:40:06.665Z,25
2017-11-28T13:41:16.664Z,25
2017-11-28T13:42:26.675Z,25
2017-11-28T13:43:36.406Z,25
2017-11-28T13:44:46.433Z,25
2017-11-28T13:45:56.476Z,25
2017-11-28T13:47:06.481Z,20
2017-11-28T13:48:16.220Z,20
2017-11-28T13:49:26.220Z,20
2017-11-28T13:50:36.225Z,20
2017-11-28T13:51:45.692Z,20
2017-11-28T13:52:55.708Z,20
2017-11-28T13:54:05.716Z,15
2017-11-28T13:55:15.713Z,15
2017-11-28T13:56:25.754Z,15
2017-11-28T13:57:35.500Z,15
2017-11-28T13:58:45.518Z,15
2017-11-28T13:59:55.542Z,15
2017-11-28T14:01:05.550Z,15
2017-11-28T14:02:15.560Z,15
2017-11-28T14:03:25.565Z,10
2017-11-28T14:04:35.584Z,10
2017-11-28T14:05:45.627Z,10
2017-11-28T14:06:55.624Z,10
2017-11-28T14:08:05.366Z,10
2017-11-28T14:09:15.388Z,10
2017-11-28T14:10:25.171Z,10
2017-11-28T14:11:35.186Z,5
2017-11-28T14:12:45.208Z,5
2017-11-28T14:13:54.941Z,5
2017-11-28T14:15:04.692Z,5
2017-11-28T14:16:14.726Z,5
2017-11-28T14:17:24.186Z,5
2017-11-28T14:18:34.207Z,5
2017-11-28T14:19:44.206Z,5
2017-11-28T14:20:54.212Z,5
2017-11-28T14:22:03.953Z,5
2017-11-28T14:23:13.973Z,5
2017-11-28T14:24:24.002Z,0
2017-11-28T14:25:34.021Z,0
2017-11-28T14:26:44.042Z,0
2017-11-28T14:27:53.519Z,0
2017-11-28T14:29:03.251Z,0
2017-11-28T14:30:12.731Z,0
2017-11-28T14:31:22.746Z,0
2017-11-28T14:32:32.767Z,0
2017-11-28T14:33:42.791Z,0
2017-11-28T14:34:52.535Z,0
2017-11-28T14:36:02.570Z,0
2017-11-28T14:37:12.314Z,0
2017-11-28T14:38:22.331Z,0
2017-11-28T14:39:32.059Z,0
2017-11-28T14:40:42.102Z,0
2017-11-28T14:41:51.848Z,0
2017-11-28T14:43:01.847Z,0
2017-11-28T14:44:11.057Z,0
2017-11-28T14:45:21.081Z,0
2017-11-28T14:46:31.091Z,0
2017-11-28T14:47:41.121Z,0
2017-11-28T14:48:51.145Z,0
2017-11-28T14:50:00.910Z,0
2017-11-28T14:51:10.928Z,0
2017-11-28T14:52:20.971Z,0
2017-11-28T14:53:30.974Z,0
2017-11-28T14:54:40.723Z,0
2017-11-28T14:55:50.196Z,0
2017-11-28T14:56:59.660Z,0
2017-11-28T14:58:09.441Z,0
2017-11-28T14:59:19.494Z,0
2017-11-28T15:00:29.524Z,0
2017-11-28T15:01:39.267Z,0
2017-11-28T15:02:49.325Z,0
2017-11-28T15:03:59.066Z,0
2017-11-28T15:05:09.077Z,0
2017-11-28T15:06:18.832Z,0
2017-11-28T15:07:28.838Z,0
2017-11-28T15:08:38.848Z,0
2017-11-28T15:09:48.855Z,0
2017-11-28T15:10:58.906Z,0
2017-11-28T15:12:08.379Z,0
2017-11-28T15:13:18.412Z,0
2017-11-28T15:14:28.428Z,0
2017-11-28T15:15:38.163Z,0
2017-11-28T15:16:48.170Z,0
2017-11-28T15:17:58.183Z,0
2017-11-28T15:19:07.917Z,0
2017-11-28T15:20:17.948Z,0
2017-11-28T15:21:27.946Z,0
2017-11-28T15:22:37.683Z,0
2017-11-28T15:23:47.683Z,0
2017-11-28T15:24:57.420Z,0
2017-11-28T15:26:06.888Z,0
2017-11-28T15:27:16.890Z,0
2017-11-28T15:28:26.642Z,0
2017-11-28T15:29:36.657Z,0
2017-11-28T15:30:46.703Z,0
2017-11-28T15:31:56.703Z,0
2017-11-28T15:33:06.725Z,0
2017-11-28T15:34:16.459Z,0
2017-11-28T15:35:26.461Z,0
2017-11-28T15:36:36.457Z,0
2017-11-28T15:37:46.464Z,0
2017-11-28T15:38:56.465Z,0
2017-11-28T15:40:06.473Z,0
2017-11-28T15:41:16.484Z,0
2017-11-28T15:42:26.494Z,0
2017-11-28T15:43:36.510Z,0
2017-11-28T15:44:46.526Z,0
2017-11-28T15:45:56.530Z,0
2017-11-28T15:47:06.547Z,0
2017-11-28T15:48:16.289Z,0
2017-11-28T15:49:26.081Z,0
2017-11-28T15:50:36.085Z,0
2017-11-28T15:51:46.091Z,0
2017-11-28T15:52:55.831Z,0
2017-11-28T15:54:05.834Z,0
2017-11-28T15:55:15.841Z,0
2017-11-28T15:56:25.577Z,0
2017-11-28T15:57:35.333Z,0
2017-11-28T15:58:45.357Z,0
2017-11-28T15:59:55.367Z,0
2017-11-28T16:01:04.826Z,0
2017-11-28T16:02:14.848Z,0
2017-11-28T16:03:24.589Z,0
2017-11-28T16:04:34.600Z,0
2017-11-28T16:05:44.616Z,0
2017-11-28T16:06:54.618Z,0
2017-11-28T16:08:04.643Z,0
2017-11-28T16:09:14.684Z,0
2017-11-28T16:10:24.695Z,0
2017-11-28T16:11:34.711Z,0
2017-11-28T16:12:44.451Z,0
2017-11-28T16:13:54.483Z,0
2017-11-28T16:15:04.488Z,0
2017-11-28T16:16:14.495Z,0
2017-11-28T16:17:24.502Z,0
2017-11-28T16:18:34.510Z,0
2017-11-28T16:19:44.520Z,0
2017-11-28T16:20:54.536Z,0
2017-11-28T16:22:04.532Z,0
2017-11-28T16:23:14.546Z,0
2017-11-28T16:24:24.275Z,0
2017-11-28T16:25:34.297Z,0
2017-11-28T16:26:44.309Z,0
2017-11-28T16:27:54.315Z,0
2017-11-28T16:29:04.337Z,0
2017-11-28T16:30:14.341Z,0
2017-11-28T16:31:24.345Z,0
2017-11-28T16:32:34.347Z,0
2017-11-28T16:33:44.353Z,0
2017-11-28T16:34:54.374Z,0
2017-11-28T16:36:04.113Z,0
2017-11-28T16:37:14.114Z,0
2017-11-28T16:38:24.118Z,0
2017-11-28T16:39:34.134Z,0
2017-11-28T16:40:44.189Z,0
2017-11-28T16:41:53.931Z,0
2017-11-28T16:43:03.934Z,0
2017-11-28T16:44:13.683Z,0
2017-11-28T16:45:23.739Z,0
2017-11-28T16:46:33.471Z,0
2017-11-28T16:47:43.486Z,0
2017-11-28T16:48:53.489Z,0
2017-11-28T16:50:03.507Z,0
2017-11-28T16:51:13.518Z,0
2017-11-28T16:52:23.529Z,0
2017-11-28T16:53:33.529Z,0
2017-11-28T16:54:43.266Z,0
2017-11-28T16:55:53.281Z,0
2017-11-28T16:57:03.326Z,0
2017-11-28T16:58:13.332Z,0